Portada
Imágenes satélite Pronóstico 15 díasClimaPredicción Marítima Ciclones Rayo AeropuertosFAQ Noticias Acerca
El tiempo : Europa África América del Norte América del Sur Asia Australia-Oceanía Otros
Idiomas Contacto

Humberside, Inglaterra

latitud: 53-35N, longitud: 000-21W, altitud: 31 m


METAR: EGNJ 191650Z 07013KT 9999 SCT025 11/05 Q1020
short-TAF: EGNJ 191359Z 1915/1921 08012KT 9999 SCT025
long-TAF: falta

Hora: 18:08 (17:08 UTC)

Observación

El informe se hizo hace 18 minutos, a las 16:50 UTC  
Viento 13 kt del este-noreste
Temperatura 11°C
Humedad 66%
Presión 1020 hPa
Visibilidad 10 km o más
Nubes dispersas a una altura de 2500 ft

Cambiar las unidades

Pronóstico

El informe se hizo hace 2 horas y 53 minutos, a las 14:15 UTC  
Pronóstico válido del 19 a las 15 UTC al 19 a las 21 UTC
Viento 12 kt del este
Visibilidad 10 km o más
Nubes dispersas a una altura de 2500 ft
La información que se ofrece en estas páginas está sujeta a una cláusula de exención de responsabilidad
El tiempo : Europa África América del Norte América del Sur Asia Australia-Oceanía Otros
Imágenes satélite Pronóstico 15 díasClimaPredicción Marítima Ciclones Rayo AeropuertosFAQ Idiomas Contacto Noticias Acerca